Time;durP1;ratioP1;P1;durP2;ratioP2;P2;SDS_P1;SDS_P2;PMS_P1;PMS_P2;Temp;Humidity;BMP_temperature;BMP_pressure;BME280_temperature;BME280_humidity;BME280_pressure;Samples;Min_cycle;Max_cycle;Signal;HPM_P1;HPM_P2
2021/12/24 00:00:48;;;;;;;12.18;3.70;;;;;;;8.03;89.81;99650.81;4956100;28;20051;-80
2021/12/24 00:03:15;;;;;;;17.60;4.10;;;;;;;8.01;89.65;99644.84;4956259;28;20050;-79
2021/12/24 00:05:43;;;;;;;21.23;4.43;;;;;;;7.97;90.04;99642.00;4965628;28;20073;-80
2021/12/24 00:08:11;;;;;;;13.80;4.10;;;;;;;7.93;89.87;99646.63;4969193;28;20746;-81
2021/12/24 00:10:39;;;;;;;20.05;6.35;;;;;;;7.86;89.84;99624.41;4956489;28;20078;-79
2021/12/24 00:13:11;;;;;;;13.40;3.50;;;;;;;7.79;89.88;99632.47;4973657;28;20545;-80
2021/12/24 00:15:53;;;;;;;15.32;4.78;;;;;;;7.77;89.81;99632.03;4973467;28;20157;-79
2021/12/24 00:36:59;;;;;;;21.85;6.32;;;;;;;7.58;89.61;99634.66;4972889;28;20047;-80
2021/12/24 00:39:25;;;;;;;16.67;5.10;;;;;;;7.57;89.70;99638.59;4972757;28;20054;-80
2021/12/24 00:41:52;;;;;;;18.80;4.30;;;;;;;7.53;89.65;99630.22;4972900;28;20038;-80
2021/12/24 00:44:22;;;;;;;17.20;5.38;;;;;;;7.55;90.08;99629.84;4971762;28;20065;-79
2021/12/24 00:46:49;;;;;;;21.23;5.15;;;;;;;7.52;90.20;99628.59;4971451;28;20043;-80
2021/12/24 00:49:15;;;;;;;22.48;5.03;;;;;;;7.51;90.07;99624.25;4972060;28;20050;-80
2021/12/24 00:56:55;;;;;;;14.43;4.28;;;;;;;7.42;89.94;99629.13;4972427;28;20402;-80
2021/12/24 00:59:22;;;;;;;16.90;5.07;;;;;;;7.38;89.85;99636.50;4972623;28;20047;-80
2021/12/24 01:01:49;;;;;;;18.95;4.15;;;;;;;7.31;90.04;99630.75;4972533;28;20086;-80
2021/12/24 01:04:16;;;;;;;19.92;5.50;;;;;;;7.30;90.31;99629.19;4972028;28;20086;-79
2021/12/24 01:06:44;;;;;;;19.65;4.15;;;;;;;7.29;90.15;99624.81;4955317;28;20046;-80
2021/12/24 01:09:11;;;;;;;19.85;5.15;;;;;;;7.31;90.12;99630.75;4972566;28;20097;-80
2021/12/24 01:11:38;;;;;;;15.38;3.65;;;;;;;7.28;90.03;99623.22;4954905;28;20384;-80
2021/12/24 01:14:04;;;;;;;17.63;4.25;;;;;;;7.24;90.08;99625.88;4936860;29;20039;-80
2021/12/24 01:16:40;;;;;;;13.20;4.47;;;;;;;7.21;90.25;99614.75;4953660;29;20039;-80
2021/12/24 01:19:19;;;;;;;11.18;3.83;;;;;;;7.19;90.29;99611.56;4936051;29;20047;-80
2021/12/24 01:24:40;;;;;;;14.82;4.93;;;;;;;7.13;90.23;99601.94;4972314;28;20500;-80
2021/12/24 01:28:01;;;;;;;13.98;4.57;;;;;;;7.08;90.31;99599.44;4967902;28;20077;-79
2021/12/24 01:38:13;;;;;;;22.35;4.95;;;;;;;6.89;90.10;99602.00;4991546;28;20042;-80
2021/12/24 01:41:06;;;;;;;22.52;6.35;;;;;;;6.87;90.17;99605.13;4973807;28;20047;-79
2021/12/24 01:43:32;;;;;;;31.35;6.68;;;;;;;6.82;90.47;99597.13;4970937;28;20043;-79
2021/12/24 01:46:01;;;;;;;26.83;7.07;;;;;;;6.80;90.35;99593.13;4970802;28;20042;-80
2021/12/24 01:48:28;;;;;;;19.60;5.25;;;;;;;6.77;90.44;99600.13;4972098;28;20053;-80
2021/12/24 01:50:55;;;;;;;16.00;5.57;;;;;;;6.76;90.32;99595.75;4954971;28;20045;-80
2021/12/24 01:53:25;;;;;;;16.42;4.90;;;;;;;6.68;90.30;99586.50;4970530;28;20043;-79
2021/12/24 01:55:52;;;;;;;17.63;5.15;;;;;;;6.67;90.30;99590.38;4971808;28;20073;-80
2021/12/24 01:58:22;;;;;;;16.00;5.70;;;;;;;6.66;90.15;99579.75;4970588;28;20043;-79
2021/12/24 02:00:50;;;;;;;13.93;5.80;;;;;;;6.66;90.07;99577.78;4970619;28;20117;-80
2021/12/24 02:03:18;;;;;;;19.33;6.32;;;;;;;6.66;90.12;99588.78;4971629;28;20113;-81
2021/12/24 02:05:46;;;;;;;19.63;6.38;;;;;;;6.69;90.31;99582.59;4954823;28;20042;-82
2021/12/24 02:08:14;;;;;;;19.67;5.38;;;;;;;6.72;90.38;99579.13;4970922;28;20049;-82
2021/12/24 02:10:42;;;;;;;23.15;6.80;;;;;;;6.74;90.39;99587.84;4975537;28;20043;-82
2021/12/24 02:13:09;;;;;;;27.30;7.65;;;;;;;6.73;90.47;99585.44;4958236;28;20046;-81
2021/12/24 02:29:37;;;;;;;16.48;5.00;;;;;;;6.70;91.12;99588.88;4993244;28;20479;-82
2021/12/24 02:32:04;;;;;;;36.17;6.28;;;;;;;6.68;91.22;99592.00;4974098;28;20129;-81
2021/12/24 02:34:31;;;;;;;19.77;4.78;;;;;;;6.70;91.35;99588.88;4975224;28;20039;-82
2021/12/24 02:36:58;;;;;;;26.98;6.45;;;;;;;6.65;90.89;99584.44;4974003;28;20466;-82
2021/12/24 02:39:25;;;;;;;26.45;6.50;;;;;;;6.60;90.63;99572.88;4973820;28;20043;-82
2021/12/24 02:41:52;;;;;;;20.92;4.35;;;;;;;6.56;90.72;99580.22;4973902;28;20067;-80
2021/12/24 02:44:19;;;;;;;17.10;5.50;;;;;;;6.56;90.84;99574.72;4975098;28;20034;-80
2021/12/24 02:53:56;;;;;;;24.85;5.85;;;;;;;6.55;90.67;99581.34;4975340;28;20042;-81
2021/12/24 02:54:53;;;;;;;21.88;5.55;;;;;;;6.60;91.17;99579.16;4975145;28;20047;-81
2021/12/24 02:57:26;;;;;;;32.03;5.88;;;;;;;6.56;90.71;99583.78;4973125;28;20485;-82
2021/12/24 03:00:05;;;;;;;19.20;5.05;;;;;;;6.52;90.99;99591.09;4974798;28;20053;-82
2021/12/24 03:02:34;;;;;;;26.67;5.28;;;;;;;6.49;91.17;99600.03;4974494;28;20051;-83
2021/12/24 03:05:01;;;;;;;29.33;6.82;;;;;;;6.45;91.54;99596.38;4972998;28;20066;-82
2021/12/24 03:07:28;;;;;;;17.65;4.80;;;;;;;6.44;91.65;99581.03;4974882;28;20456;-82
2021/12/24 03:09:55;;;;;;;28.50;5.93;;;;;;;6.42;91.54;99575.09;4957746;28;20438;-82
2021/12/24 03:12:23;;;;;;;19.85;5.45;;;;;;;6.43;91.65;99564.91;4957305;28;20130;-82
2021/12/24 03:14:49;;;;;;;22.48;5.13;;;;;;;6.41;91.86;99559.72;4974486;28;20053;-81
2021/12/24 03:17:20;;;;;;;12.82;5.05;;;;;;;6.41;91.63;99547.94;4974813;28;20476;-82
2021/12/24 03:19:47;;;;;;;17.98;4.70;;;;;;;6.37;91.61;99547.84;4957018;28;20065;-82
2021/12/24 03:24:59;;;;;;;19.77;5.47;;;;;;;6.36;91.70;99531.66;4956031;28;20055;-82
2021/12/24 03:27:26;;;;;;;23.38;5.05;;;;;;;6.35;91.72;99539.16;4983116;28;20043;-82
2021/12/24 03:29:52;;;;;;;22.40;4.60;;;;;;;6.34;91.67;99548.53;4993389;28;20073;-82
2021/12/24 03:32:21;;;;;;;17.20;4.03;;;;;;;6.30;91.72;99546.81;4992543;28;20046;-81
2021/12/24 03:34:48;;;;;;;15.10;4.38;;;;;;;6.30;91.69;99542.09;4976144;28;20053;-82
2021/12/24 03:37:15;;;;;;;22.75;5.03;;;;;;;6.31;91.61;99531.91;4976382;28;20506;-82
2021/12/24 03:39:42;;;;;;;18.98;5.93;;;;;;;6.30;91.70;99524.84;4975251;28;20056;-81
2021/12/24 03:42:09;;;;;;;27.23;5.93;;;;;;;6.25;91.58;99525.84;4956974;28;20070;-82
2021/12/24 03:44:44;;;;;;;16.38;4.25;;;;;;;6.23;92.11;99525.41;4956727;28;20043;-82
2021/12/24 03:47:18;;;;;;;25.70;5.72;;;;;;;6.23;91.44;99522.66;4973971;28;20154;-82
2021/12/24 03:55:05;;;;;;;18.20;5.63;;;;;;;6.24;91.64;99516.03;4973887;28;20101;-82
2021/12/24 03:57:34;;;;;;;11.73;4.40;;;;;;;6.20;91.48;99515.09;4973818;28;20391;-81
2021/12/24 04:00:27;;;;;;;25.25;5.78;;;;;;;6.14;91.73;99520.03;4972402;28;20065;-82
2021/12/24 04:02:54;;;;;;;17.63;4.65;;;;;;;6.14;91.74;99517.28;4955860;28;20086;-81
2021/12/24 04:05:21;;;;;;;23.20;4.43;;;;;;;6.14;91.85;99522.00;4952777;29;20039;-82
2021/12/24 04:07:48;;;;;;;15.20;4.47;;;;;;;6.13;91.51;99528.63;4937032;29;20171;-82
2021/12/24 04:10:36;;;;;;;16.05;4.38;;;;;;;6.13;91.66;99534.13;4954587;29;20045;-82
2021/12/24 04:13:02;;;;;;;20.33;5.70;;;;;;;6.10;91.72;99515.56;4966693;28;20129;-81
2021/12/24 04:15:29;;;;;;;24.60;5.88;;;;;;;6.08;92.06;99513.19;4972273;28;20049;-82
2021/12/24 04:17:56;;;;;;;17.52;4.63;;;;;;;6.10;91.96;99516.38;4973098;28;20049;-81
2021/12/24 04:25:54;;;;;;;18.08;4.13;;;;;;;6.05;91.90;99502.88;4976005;28;20106;-81
2021/12/24 04:28:20;;;;;;;22.00;6.07;;;;;;;6.07;91.90;99499.78;4959092;28;20039;-82
2021/12/24 04:30:51;;;;;;;18.92;4.80;;;;;;;6.09;91.84;99513.97;4971888;28;20039;-81
2021/12/24 04:33:28;;;;;;;16.23;4.97;;;;;;;6.08;91.91;99515.94;4955929;28;20038;-81
2021/12/24 04:52:03;;;;;;;22.60;6.25;;;;;;;6.00;92.08;99510.56;4972697;28;20121;-81
2021/12/24 05:05:36;;;;;;;20.08;4.60;;;;;;;5.93;92.02;99494.63;4972771;28;20047;-82
2021/12/24 05:10:40;;;;;;;20.63;4.68;;;;;;;5.98;92.26;99499.13;4972678;28;20046;-81
2021/12/24 05:13:10;;;;;;;11.85;4.70;;;;;;;5.98;92.28;99497.16;4972505;28;20039;-81
2021/12/24 05:15:39;;;;;;;18.27;6.20;;;;;;;5.98;92.21;99496.38;4939378;28;20043;-82
2021/12/24 05:23:20;;;;;;;15.00;4.65;;;;;;;5.85;92.22;99492.03;4955007;28;20146;-81
2021/12/24 05:25:50;;;;;;;15.48;4.80;;;;;;;5.88;92.25;99480.34;4973071;28;20043;-82
2021/12/24 05:28:18;;;;;;;20.42;8.63;;;;;;;5.89;92.11;99473.69;4958270;28;20467;-81
2021/12/24 05:30:45;;;;;;;25.85;4.95;;;;;;;5.90;92.25;99472.56;4991656;28;20050;-81
2021/12/24 05:33:14;;;;;;;23.67;7.63;;;;;;;5.92;92.26;99470.28;4983719;28;20102;-82
2021/12/24 05:35:43;;;;;;;21.58;6.18;;;;;;;5.93;92.24;99480.91;4963532;28;20036;-81
2021/12/24 05:38:11;;;;;;;18.40;5.32;;;;;;;5.92;92.37;99486.75;4948709;28;20468;-81
2021/12/24 05:40:38;;;;;;;15.98;5.03;;;;;;;5.89;92.60;99481.94;4970773;28;20450;-82
2021/12/24 05:43:04;;;;;;;19.35;4.63;;;;;;;5.90;92.78;99478.88;4972305;28;20047;-81
2021/12/24 05:45:31;;;;;;;16.25;5.85;;;;;;;5.91;92.34;99477.72;4959027;28;20034;-81
2021/12/24 05:47:58;;;;;;;17.50;3.92;;;;;;;5.91;92.75;99474.97;4958801;28;20101;-82
2021/12/24 05:50:25;;;;;;;25.30;5.53;;;;;;;5.95;92.67;99464.09;4974883;28;20047;-82
2021/12/24 05:52:52;;;;;;;27.80;5.97;;;;;;;5.99;93.11;99468.53;4958775;28;20051;-82
2021/12/24 05:55:19;;;;;;;29.95;6.85;;;;;;;6.03;92.93;99471.41;4974495;28;20057;-81
2021/12/24 05:57:46;;;;;;;19.40;6.07;;;;;;;6.04;92.98;99473.00;4976068;28;20031;-81
2021/12/24 06:00:14;;;;;;;15.50;5.15;;;;;;;6.02;92.98;99461.56;4975780;28;20142;-82
2021/12/24 06:02:40;;;;;;;15.30;4.50;;;;;;;6.02;92.99;99464.28;4942017;28;20053;-82
2021/12/24 06:05:09;;;;;;;21.67;4.50;;;;;;;6.04;93.25;99465.56;4974668;28;20086;-81
2021/12/24 06:07:35;;;;;;;14.63;4.18;;;;;;;6.07;93.27;99464.06;4974683;28;20523;-81
2021/12/24 06:10:03;;;;;;;23.83;4.90;;;;;;;6.10;93.38;99477.09;4974634;28;20053;-81
2021/12/24 06:12:30;;;;;;;24.50;6.03;;;;;;;6.12;93.57;99474.81;4975226;28;20074;-82
2021/12/24 06:15:02;;;;;;;27.90;6.72;;;;;;;6.12;93.67;99481.09;4973981;28;20038;-82
2021/12/24 06:17:29;;;;;;;15.88;4.47;;;;;;;6.12;93.63;99486.59;4973746;28;20550;-81
2021/12/24 06:19:56;;;;;;;17.98;4.35;;;;;;;6.19;94.38;99480.53;4975164;28;20039;-81
2021/12/24 06:22:23;;;;;;;22.90;4.50;;;;;;;6.24;94.14;99474.81;4975612;28;20038;-82
2021/12/24 06:24:49;;;;;;;25.40;4.25;;;;;;;6.27;94.16;99490.59;4942111;28;20042;-81
2021/12/24 06:27:16;;;;;;;19.65;4.22;;;;;;;6.28;94.18;99486.69;4985831;28;20082;-81
2021/12/24 06:29:43;;;;;;;20.52;4.88;;;;;;;6.30;94.60;99469.88;4968814;28;20050;-81
2021/12/24 06:32:10;;;;;;;20.40;4.80;;;;;;;6.30;94.50;99481.63;4975137;28;20042;-82
2021/12/24 06:34:37;;;;;;;18.27;3.75;;;;;;;6.31;94.66;99482.44;4975299;28;20133;-81
2021/12/24 06:37:04;;;;;;;18.08;5.13;;;;;;;6.30;94.67;99480.84;4975176;28;20034;-82
2021/12/24 06:39:31;;;;;;;18.98;4.72;;;;;;;6.31;94.75;99477.75;4970628;28;20050;-81
2021/12/24 06:41:57;;;;;;;22.92;4.00;;;;;;;6.34;95.02;99471.56;4975045;28;20043;-81
2021/12/24 06:44:25;;;;;;;22.30;4.78;;;;;;;6.38;95.52;99472.44;4974177;28;20046;-81
2021/12/24 06:46:52;;;;;;;21.55;4.22;;;;;;;6.44;95.55;99473.81;4957474;28;20049;-81
2021/12/24 06:49:19;;;;;;;21.45;4.50;;;;;;;6.48;95.73;99468.44;4957227;28;20372;-82
2021/12/24 06:51:46;;;;;;;23.48;3.97;;;;;;;6.60;96.97;99473.88;4974920;28;20360;-81
2021/12/24 06:54:12;;;;;;;26.33;5.88;;;;;;;6.70;96.81;99474.19;4957168;28;20130;-81
2021/12/24 06:56:44;;;;;;;24.02;3.42;;;;;;;6.78;96.77;99466.91;4957605;28;20141;-82
2021/12/24 06:59:11;;;;;;;18.65;3.75;;;;;;;6.87;96.97;99477.78;4974892;28;20164;-81
2021/12/24 07:01:38;;;;;;;34.70;5.18;;;;;;;6.96;97.57;99481.19;4957247;28;20035;-82
2021/12/24 07:04:05;;;;;;;38.90;5.85;;;;;;;7.04;97.68;99472.75;4982183;28;20066;-81
2021/12/24 07:06:33;;;;;;;33.05;4.55;;;;;;;7.14;98.72;99479.69;4986260;28;20050;-82
2021/12/24 07:09:00;;;;;;;35.72;6.50;;;;;;;7.22;98.23;99473.22;4992870;28;20042;-81
2021/12/24 07:11:27;;;;;;;34.25;6.88;;;;;;;7.28;98.28;99477.31;4993873;28;20065;-82
2021/12/24 07:13:54;;;;;;;26.58;5.85;;;;;;;7.32;98.23;99475.44;4992896;28;20039;-81
2021/12/24 07:16:21;;;;;;;34.10;5.75;;;;;;;7.40;98.75;99488.25;4994502;28;20479;-81
2021/12/24 07:18:47;;;;;;;29.13;6.22;;;;;;;7.44;98.61;99483.63;4990920;28;20085;-79
2021/12/24 07:21:14;;;;;;;42.42;8.98;;;;;;;7.47;98.83;99469.13;4954785;28;20039;-79
2021/12/24 07:23:44;;;;;;;42.92;6.75;;;;;;;7.51;99.25;99475.56;4973393;28;20118;-79
2021/12/24 07:26:10;;;;;;;39.10;7.75;;;;;;;7.52;99.37;99471.63;4979328;28;20034;-79
2021/12/24 07:28:37;;;;;;;46.10;6.97;;;;;;;7.55;99.51;99465.41;4992804;28;20050;-79
2021/12/24 07:31:04;;;;;;;49.03;6.65;;;;;;;7.56;99.84;99461.50;4992809;28;20046;-78
2021/12/24 07:33:31;;;;;;;45.72;6.68;;;;;;;7.58;100.00;99466.66;4976274;28;20474;-79
2021/12/24 07:35:58;;;;;;;35.55;6.43;;;;;;;7.57;99.62;99471.34;4988225;28;20563;-79
2021/12/24 07:38:25;;;;;;;44.33;7.85;;;;;;;7.55;99.96;99465.41;4972813;28;20054;-79
2021/12/24 07:40:52;;;;;;;43.78;7.95;;;;;;;7.55;100.00;99459.91;4956694;28;20038;-79
2021/12/24 07:43:19;;;;;;;49.28;8.52;;;;;;;7.53;100.00;99462.22;4974130;28;20046;-79
2021/12/24 07:45:46;;;;;;;45.63;8.95;;;;;;;7.52;100.00;99457.84;4952345;28;20037;-79
2021/12/24 07:48:15;;;;;;;45.92;7.57;;;;;;;7.52;100.00;99448.81;4961525;28;20035;-78
2021/12/24 07:53:17;;;;;;;44.13;6.07;;;;;;;7.48;100.00;99445.16;4959912;28;20034;-79
2021/12/24 07:55:45;;;;;;;46.05;6.22;;;;;;;7.51;100.00;99452.72;4956814;28;20046;-78
2021/12/24 07:58:17;;;;;;;49.78;7.32;;;;;;;7.51;100.00;99442.50;4972498;28;20043;-79
2021/12/24 08:00:45;;;;;;;41.75;5.70;;;;;;;7.54;100.00;99443.75;4973625;28;20031;-78
2021/12/24 08:03:12;;;;;;;40.53;7.75;;;;;;;7.54;100.00;99439.03;4956284;28;20051;-79
2021/12/24 08:05:40;;;;;;;39.72;7.28;;;;;;;7.56;100.00;99439.47;4972218;28;20093;-78
2021/12/24 08:08:10;;;;;;;34.85;6.30;;;;;;;7.60;100.00;99440.34;4940119;28;20078;-79
2021/12/24 08:10:37;;;;;;;39.72;7.53;;;;;;;7.62;100.00;99432.56;4956254;28;20035;-78
2021/12/24 08:13:05;;;;;;;52.08;7.18;;;;;;;7.67;100.00;99440.53;4973607;28;20142;-78
2021/12/24 08:15:32;;;;;;;35.78;8.05;;;;;;;7.71;100.00;99435.09;4972853;28;20038;-79
2021/12/24 08:17:59;;;;;;;49.90;10.32;;;;;;;7.74;100.00;99431.63;4955915;28;20082;-79
2021/12/24 08:20:27;;;;;;;47.75;11.07;;;;;;;7.79;100.00;99431.34;4973150;28;20053;-80
2021/12/24 08:22:55;;;;;;;60.95;12.95;;;;;;;7.81;100.00;99435.34;4973231;28;20038;-79
2021/12/24 08:25:24;;;;;;;50.95;8.13;;;;;;;7.84;100.00;99433.81;4973179;28;20043;-79
2021/12/24 08:27:51;;;;;;;46.92;9.15;;;;;;;7.87;100.00;99430.34;4980606;28;20035;-80
2021/12/24 08:30:18;;;;;;;53.65;11.07;;;;;;;7.88;100.00;99430.00;4972141;28;20047;-79
2021/12/24 08:32:45;;;;;;;38.80;8.77;;;;;;;7.93;100.00;99432.50;4973033;28;20045;-79
2021/12/24 08:35:15;;;;;;;37.35;8.32;;;;;;;7.98;100.00;99436.91;4973054;28;20035;-78
2021/12/24 08:37:42;;;;;;;41.83;7.90;;;;;;;8.02;100.00;99428.72;4955991;28;20045;-79
2021/12/24 08:40:11;;;;;;;42.38;8.75;;;;;;;8.08;100.00;99427.28;4971705;28;20073;-80
2021/12/24 08:42:38;;;;;;;44.30;7.05;;;;;;;8.14;100.00;99428.59;4973017;28;20109;-79
2021/12/24 08:45:05;;;;;;;43.33;8.10;;;;;;;8.17;100.00;99428.69;4955595;28;20046;-79
2021/12/24 08:47:33;;;;;;;41.88;8.10;;;;;;;8.23;100.00;99423.69;4972766;28;20050;-79
2021/12/24 08:49:59;;;;;;;38.88;7.13;;;;;;;8.27;100.00;99424.56;4955564;28;20383;-79
2021/12/24 08:52:26;;;;;;;44.03;8.30;;;;;;;8.32;100.00;99432.56;4968281;28;20072;-79
2021/12/24 08:54:53;;;;;;;28.45;7.10;;;;;;;8.37;100.00;99421.25;4939039;29;20042;-79
2021/12/24 08:57:20;;;;;;;43.47;7.43;;;;;;;8.39;100.00;99421.69;4951663;29;20742;-79
2021/12/24 08:59:46;;;;;;;42.55;7.78;;;;;;;8.42;100.00;99426.47;4953079;29;20054;-79
2021/12/24 09:02:17;;;;;;;50.05;8.45;;;;;;;8.46;100.00;99416.31;4950116;28;20129;-79
2021/12/24 09:04:44;;;;;;;41.60;7.10;;;;;;;8.48;100.00;99412.03;4970703;28;20062;-79
2021/12/24 09:07:11;;;;;;;43.60;7.53;;;;;;;8.53;100.00;99413.69;4955461;28;20047;-79
2021/12/24 09:09:37;;;;;;;48.00;7.22;;;;;;;8.54;100.00;99413.34;4972579;28;20043;-79
2021/12/24 09:12:05;;;;;;;48.40;6.35;;;;;;;8.57;100.00;99406.31;4972388;28;20039;-79
2021/12/24 09:14:32;;;;;;;45.05;7.18;;;;;;;8.58;100.00;99407.88;4955141;28;20051;-79
2021/12/24 09:17:02;;;;;;;39.85;7.45;;;;;;;8.58;100.00;99403.16;4971187;28;20047;-79
2021/12/24 09:19:30;;;;;;;49.00;7.72;;;;;;;8.58;100.00;99400.41;4954965;28;20097;-79
2021/12/24 09:21:58;;;;;;;37.88;7.35;;;;;;;8.59;100.00;99412.25;4955414;28;20050;-78
2021/12/24 09:24:30;;;;;;;42.10;7.80;;;;;;;8.57;100.00;99395.25;4972355;28;20809;-78
2021/12/24 09:26:58;;;;;;;39.92;6.68;;;;;;;8.58;100.00;99394.09;4983730;28;20049;-79
2021/12/24 09:29:25;;;;;;;38.28;6.40;;;;;;;8.56;100.00;99394.47;4991697;28;20124;-79
2021/12/24 09:31:54;;;;;;;43.30;7.45;;;;;;;8.59;100.00;99392.94;4974092;28;20061;-79
2021/12/24 09:34:20;;;;;;;42.13;9.27;;;;;;;8.58;100.00;99385.81;4991898;28;20034;-79
2021/12/24 09:36:47;;;;;;;42.28;7.03;;;;;;;8.60;100.00;99382.69;4972825;28;20070;-79
2021/12/24 09:39:14;;;;;;;44.92;8.73;;;;;;;8.62;100.00;99380.38;4972327;28;20045;-79
2021/12/24 09:41:41;;;;;;;40.85;6.78;;;;;;;8.63;100.00;99368.94;4967534;28;20472;-79
2021/12/24 09:44:11;;;;;;;46.00;6.35;;;;;;;8.64;100.00;99372.53;4952990;29;20090;-79
2021/12/24 09:46:42;;;;;;;27.77;5.53;;;;;;;8.67;100.00;99375.34;4935687;29;20138;-79
2021/12/24 09:49:10;;;;;;;28.50;5.32;;;;;;;8.68;100.00;99365.94;4952688;29;20044;-79
2021/12/24 09:51:41;;;;;;;34.58;7.38;;;;;;;8.69;100.00;99363.94;4936785;28;20043;-79
2021/12/24 09:54:16;;;;;;;34.58;7.82;;;;;;;8.69;100.00;99353.72;4971083;28;20089;-79
2021/12/24 09:56:44;;;;;;;30.67;5.65;;;;;;;8.73;100.00;99354.59;4954342;28;20126;-79
2021/12/24 09:59:11;;;;;;;23.95;6.38;;;;;;;8.73;100.00;99351.81;4960480;28;20352;-79
2021/12/24 10:01:46;;;;;;;31.40;5.40;;;;;;;8.75;100.00;99357.75;4971976;28;20050;-79
2021/12/24 10:04:16;;;;;;;28.42;5.25;;;;;;;8.77;100.00;99354.63;4971893;28;20062;-79
2021/12/24 10:06:53;;;;;;;35.88;5.57;;;;;;;8.80;100.00;99353.91;4954935;28;20453;-79
2021/12/24 10:09:21;;;;;;;31.75;5.25;;;;;;;8.80;100.00;99353.91;4971974;28;20047;-79
2021/12/24 10:11:52;;;;;;;26.25;3.88;;;;;;;8.80;100.00;99342.88;4938702;28;20179;-79
2021/12/24 10:14:21;;;;;;;26.70;5.22;;;;;;;8.82;100.00;99341.31;4971063;28;20505;-79
2021/12/24 10:16:51;;;;;;;19.98;3.63;;;;;;;8.84;100.00;99350.03;4970811;28;20049;-80
2021/12/24 10:19:19;;;;;;;32.97;5.97;;;;;;;8.87;100.00;99346.53;4954051;28;20489;-79
2021/12/24 10:21:55;;;;;;;34.05;4.68;;;;;;;8.88;100.00;99352.84;4970335;28;20086;-79
2021/12/24 10:24:23;;;;;;;17.48;4.95;;;;;;;8.89;100.00;99344.22;4954492;28;20049;-79
2021/12/24 10:26:52;;;;;;;23.15;4.03;;;;;;;8.90;100.00;99334.75;4963688;28;20042;-79
2021/12/24 10:29:34;;;;;;;20.38;3.75;;;;;;;8.90;100.00;99348.56;4971931;28;20050;-79
2021/12/24 10:32:16;;;;;;;22.70;4.63;;;;;;;8.90;100.00;99340.28;4958105;28;20085;-79
2021/12/24 10:34:44;;;;;;;29.80;4.78;;;;;;;8.92;100.00;99342.69;4958500;28;20138;-79
2021/12/24 10:37:23;;;;;;;38.88;4.78;;;;;;;8.93;100.00;99328.50;4958369;28;20050;-79
2021/12/24 10:39:55;;;;;;;25.67;4.43;;;;;;;8.96;100.00;99344.34;4975194;28;20066;-79
2021/12/24 10:42:25;;;;;;;27.52;4.80;;;;;;;8.98;100.00;99330.97;4975075;28;20166;-79
2021/12/24 10:44:53;;;;;;;36.45;6.72;;;;;;;9.00;100.00;99336.91;4957686;28;20049;-79
2021/12/24 10:47:27;;;;;;;46.33;6.53;;;;;;;9.03;100.00;99341.69;4975105;28;20050;-79
2021/12/24 10:50:31;;;;;;;23.83;4.25;;;;;;;9.04;100.00;99343.31;4974823;28;20089;-79
2021/12/24 10:53:20;;;;;;;26.23;7.43;;;;;;;9.06;100.00;99346.47;4957794;28;20050;-79
2021/12/24 10:55:53;;;;;;;27.27;4.45;;;;;;;9.08;100.00;99344.16;4973611;28;20070;-79
2021/12/24 10:58:23;;;;;;;35.63;5.85;;;;;;;9.09;100.00;99334.72;4973621;28;20261;-79
2021/12/24 11:00:58;;;;;;;31.80;7.28;;;;;;;9.10;100.00;99341.03;4957365;28;20411;-79
2021/12/24 11:03:28;;;;;;;30.85;7.10;;;;;;;9.10;100.00;99330.78;4970553;28;20135;-79
2021/12/24 11:06:09;;;;;;;33.38;7.80;;;;;;;9.10;100.00;99328.03;4961593;28;20041;-79
2021/12/24 11:08:37;;;;;;;32.47;6.72;;;;;;;9.12;100.00;99330.41;4974793;28;20130;-80
2021/12/24 11:11:11;;;;;;;39.88;8.15;;;;;;;9.13;100.00;99326.50;4974873;28;20047;-79
2021/12/24 11:13:43;;;;;;;26.52;6.07;;;;;;;9.13;100.00;99318.97;4957477;28;20053;-79
2021/12/24 11:16:20;;;;;;;29.92;6.95;;;;;;;9.14;100.00;99314.25;4973224;28;20082;-79
2021/12/24 11:19:00;;;;;;;32.20;6.18;;;;;;;9.14;100.00;99317.81;4974355;28;20045;-79
2021/12/24 11:21:30;;;;;;;31.13;6.13;;;;;;;9.17;100.00;99310.75;4974439;28;20070;-79
2021/12/24 11:23:57;;;;;;;39.47;6.55;;;;;;;9.16;100.00;99309.16;4974241;28;20046;-79
2021/12/24 11:26:29;;;;;;;22.70;5.55;;;;;;;9.16;100.00;99306.41;4978877;28;20364;-80
2021/12/24 11:28:57;;;;;;;28.23;6.53;;;;;;;9.17;100.00;99297.75;4993933;28;20042;-78
2021/12/24 11:31:27;;;;;;;32.22;5.53;;;;;;;9.17;100.00;99296.97;4993682;28;20049;-80
2021/12/24 11:33:57;;;;;;;19.65;4.55;;;;;;;9.18;100.00;99290.28;4990644;28;20043;-79
2021/12/24 11:36:26;;;;;;;28.67;5.10;;;;;;;9.19;100.00;99295.41;4956160;28;20062;-80
2021/12/24 11:39:02;;;;;;;31.48;6.13;;;;;;;9.21;100.00;99292.31;4974385;28;20039;-79
2021/12/24 11:41:32;;;;;;;31.02;5.68;;;;;;;9.21;100.00;99285.97;4969440;28;20051;-79
2021/12/24 11:44:06;;;;;;;24.67;5.00;;;;;;;9.24;100.00;99288.00;4954691;29;20043;-79
2021/12/24 11:46:37;;;;;;;20.95;4.93;;;;;;;9.23;100.00;99284.44;4969400;28;20135;-79
2021/12/24 11:49:05;;;;;;;20.27;3.70;;;;;;;9.22;100.00;99279.28;4954772;29;20047;-79
2021/12/24 11:51:41;;;;;;;30.52;4.22;;;;;;;9.23;100.00;99278.91;4963005;28;20071;-79
2021/12/24 11:54:09;;;;;;;26.27;4.53;;;;;;;9.24;100.00;99280.50;4973951;28;20039;-79
2021/12/24 11:56:49;;;;;;;26.77;4.68;;;;;;;9.25;100.00;99275.78;4956600;28;20046;-78
2021/12/24 11:59:18;;;;;;;34.80;6.47;;;;;;;9.26;100.00;99282.91;4956400;28;20490;-79
2021/12/24 12:01:45;;;;;;;27.25;7.22;;;;;;;9.26;100.00;99280.13;4973961;28;20049;-79
2021/12/24 12:04:20;;;;;;;37.50;4.93;;;;;;;9.28;100.00;99270.31;4956311;28;20392;-79
2021/12/24 12:06:47;;;;;;;18.50;4.63;;;;;;;9.27;100.00;99268.72;4973672;28;20041;-79
2021/12/24 12:09:14;;;;;;;24.45;5.22;;;;;;;9.27;100.00;99267.91;4970127;28;20146;-79
2021/12/24 12:11:44;;;;;;;27.85;8.40;;;;;;;9.27;100.00;99259.63;4964844;28;20054;-79
2021/12/24 12:14:10;;;;;;;19.38;5.65;;;;;;;9.28;100.00;99263.97;4937537;29;20066;-79
2021/12/24 12:16:51;;;;;;;25.92;6.97;;;;;;;9.28;100.00;99252.94;4936844;29;20150;-79
2021/12/24 12:19:28;;;;;;;33.72;6.28;;;;;;;9.26;100.00;99253.31;4954174;29;20043;-79
2021/12/24 12:25:06;;;;;;;36.65;6.93;;;;;;;9.26;100.00;99256.09;4956267;28;20134;-79
2021/12/24 12:27:37;;;;;;;33.33;5.70;;;;;;;9.27;100.00;99245.81;4985148;28;20066;-79
2021/12/24 12:30:27;;;;;;;29.60;6.00;;;;;;;9.27;100.00;99246.63;4987965;28;20046;-79
2021/12/24 12:33:11;;;;;;;32.13;6.93;;;;;;;9.29;100.00;99246.25;4985604;28;20072;-79
2021/12/24 12:35:41;;;;;;;31.55;5.35;;;;;;;9.31;99.91;99244.72;4987987;28;20050;-80
2021/12/24 12:38:38;;;;;;;30.20;6.13;;;;;;;9.31;100.00;99238.38;4989206;28;20045;-79
2021/12/24 12:41:33;;;;;;;28.88;5.13;;;;;;;9.29;99.79;99232.44;4984057;28;20050;-79
2021/12/24 12:44:13;;;;;;;20.15;5.38;;;;;;;9.31;100.00;99235.63;4971775;28;20043;-79
2021/12/24 12:46:43;;;;;;;26.15;5.28;;;;;;;9.30;99.83;99228.50;4972981;28;20045;-79
2021/12/24 12:49:16;;;;;;;24.10;5.47;;;;;;;9.31;99.99;99230.91;4971507;28;20039;-79
2021/12/24 12:51:48;;;;;;;31.60;6.03;;;;;;;9.29;99.97;99216.69;4972775;28;20489;-79
2021/12/24 12:54:34;;;;;;;28.45;8.07;;;;;;;9.31;99.75;99219.06;4955447;28;20062;-79
2021/12/24 12:57:15;;;;;;;32.75;7.45;;;;;;;9.32;99.74;99209.63;4972071;28;20043;-79
2021/12/24 13:00:10;;;;;;;25.92;5.72;;;;;;;9.34;99.68;99202.53;4955124;28;20050;-79
2021/12/24 13:03:06;;;;;;;24.83;6.57;;;;;;;9.34;99.52;99191.50;4955545;28;20467;-79
2021/12/24 13:05:41;;;;;;;34.55;5.85;;;;;;;9.37;99.47;99198.25;4955402;28;20045;-79
2021/12/24 13:08:17;;;;;;;20.35;4.63;;;;;;;9.38;99.68;99199.81;4972743;28;20057;-79
2021/12/24 13:11:09;;;;;;;34.70;7.82;;;;;;;9.39;99.37;99193.94;4970784;28;20069;-79
2021/12/24 13:14:00;;;;;;;29.97;4.77;;;;;;;9.39;99.19;99199.44;4955456;28;20057;-79
2021/12/24 13:16:35;;;;;;;24.55;5.72;;;;;;;9.42;99.23;99200.66;4968030;28;20061;-79
2021/12/24 13:25:14;;;;;;;27.88;4.70;;;;;;;9.44;98.76;99203.84;4936091;29;20051;-79
2021/12/24 13:27:44;;;;;;;23.55;5.50;;;;;;;9.44;98.86;99203.84;4946219;28;20073;-79
2021/12/24 13:30:19;;;;;;;23.65;5.55;;;;;;;9.45;98.74;99202.69;4955599;28;20039;-79
2021/12/24 13:32:50;;;;;;;25.17;6.15;;;;;;;9.46;98.32;99199.53;4987868;28;20072;-79
2021/12/24 13:35:25;;;;;;;32.58;5.55;;;;;;;9.46;98.68;99194.00;4972202;28;20053;-79
2021/12/24 13:37:54;;;;;;;28.33;5.63;;;;;;;9.46;98.36;99207.03;4972362;28;20043;-79